sensor_id;sensor_type;location;lat;lon;timestamp;P1;durP1;ratioP1;P2;durP2;ratioP2
29662;SDS011;16578;53.266;7.920;2024-03-02T00:01:04;12.18;;;7.97;;
29662;SDS011;16578;53.266;7.920;2024-03-02T00:03:31;14.13;;;8.90;;
29662;SDS011;16578;53.266;7.920;2024-03-02T00:05:57;11.90;;;7.93;;
29662;SDS011;16578;53.266;7.920;2024-03-02T00:08:23;13.15;;;9.07;;
29662;SDS011;16578;53.266;7.920;2024-03-02T00:10:51;12.05;;;8.40;;
29662;SDS011;16578;53.266;7.920;2024-03-02T00:13:18;12.77;;;8.50;;
29662;SDS011;16578;53.266;7.920;2024-03-02T00:15:53;12.20;;;8.45;;
29662;SDS011;16578;53.266;7.920;2024-03-02T00:18:41;10.27;;;7.75;;
29662;SDS011;16578;53.266;7.920;2024-03-02T00:21:06;10.75;;;7.57;;
29662;SDS011;16578;53.266;7.920;2024-03-02T00:23:34;12.52;;;8.93;;
29662;SDS011;16578;53.266;7.920;2024-03-02T00:26:00;11.85;;;8.20;;
29662;SDS011;16578;53.266;7.920;2024-03-02T00:28:27;13.45;;;9.02;;
29662;SDS011;16578;53.266;7.920;2024-03-02T00:31:07;11.63;;;7.60;;
29662;SDS011;16578;53.266;7.920;2024-03-02T00:33:37;12.15;;;8.30;;
29662;SDS011;16578;53.266;7.920;2024-03-02T00:36:05;11.52;;;7.72;;
29662;SDS011;16578;53.266;7.920;2024-03-02T00:38:32;12.07;;;8.18;;
29662;SDS011;16578;53.266;7.920;2024-03-02T00:40:59;10.63;;;7.55;;
29662;SDS011;16578;53.266;7.920;2024-03-02T00:43:42;11.93;;;8.48;;
29662;SDS011;16578;53.266;7.920;2024-03-02T00:46:09;11.55;;;7.82;;
29662;SDS011;16578;53.266;7.920;2024-03-02T00:49:02;13.27;;;7.72;;
29662;SDS011;16578;53.266;7.920;2024-03-02T00:51:30;10.18;;;7.45;;
29662;SDS011;16578;53.266;7.920;2024-03-02T00:53:58;11.18;;;7.18;;
29662;SDS011;16578;53.266;7.920;2024-03-02T00:56:29;10.32;;;7.03;;
29662;SDS011;16578;53.266;7.920;2024-03-02T00:58:55;10.50;;;7.05;;
29662;SDS011;16578;53.266;7.920;2024-03-02T01:01:21;13.73;;;7.63;;
29662;SDS011;16578;53.266;7.920;2024-03-02T01:03:47;10.90;;;7.13;;
29662;SDS011;16578;53.266;7.920;2024-03-02T01:06:14;10.63;;;6.88;;
29662;SDS011;16578;53.266;7.920;2024-03-02T01:08:40;10.13;;;7.00;;
29662;SDS011;16578;53.266;7.920;2024-03-02T01:11:06;10.88;;;7.25;;
29662;SDS011;16578;53.266;7.920;2024-03-02T01:13:32;10.52;;;7.03;;
29662;SDS011;16578;53.266;7.920;2024-03-02T01:15:58;10.27;;;7.30;;
29662;SDS011;16578;53.266;7.920;2024-03-02T01:18:24;11.07;;;7.50;;
29662;SDS011;16578;53.266;7.920;2024-03-02T01:20:49;9.23;;;6.60;;
29662;SDS011;16578;53.266;7.920;2024-03-02T01:23:20;12.07;;;7.85;;
29662;SDS011;16578;53.266;7.920;2024-03-02T01:25:49;10.02;;;6.88;;
29662;SDS011;16578;53.266;7.920;2024-03-02T01:28:15;9.43;;;6.95;;
29662;SDS011;16578;53.266;7.920;2024-03-02T01:30:41;9.80;;;6.55;;
29662;SDS011;16578;53.266;7.920;2024-03-02T01:33:07;10.13;;;6.78;;
29662;SDS011;16578;53.266;7.920;2024-03-02T01:35:33;10.57;;;6.70;;
29662;SDS011;16578;53.266;7.920;2024-03-02T01:37:59;9.25;;;6.72;;
29662;SDS011;16578;53.266;7.920;2024-03-02T01:40:25;9.35;;;6.72;;
29662;SDS011;16578;53.266;7.920;2024-03-02T01:42:51;9.77;;;6.85;;
29662;SDS011;16578;53.266;7.920;2024-03-02T01:45:19;7.70;;;5.55;;
29662;SDS011;16578;53.266;7.920;2024-03-02T01:47:45;8.20;;;5.82;;
29662;SDS011;16578;53.266;7.920;2024-03-02T01:50:11;6.82;;;5.50;;
29662;SDS011;16578;53.266;7.920;2024-03-02T01:52:37;9.82;;;6.15;;
29662;SDS011;16578;53.266;7.920;2024-03-02T01:55:03;8.77;;;5.85;;
29662;SDS011;16578;53.266;7.920;2024-03-02T01:57:29;8.55;;;6.10;;
29662;SDS011;16578;53.266;7.920;2024-03-02T01:59:55;8.48;;;5.78;;
29662;SDS011;16578;53.266;7.920;2024-03-02T02:02:21;10.13;;;6.18;;
29662;SDS011;16578;53.266;7.920;2024-03-02T02:04:47;8.52;;;6.03;;
29662;SDS011;16578;53.266;7.920;2024-03-02T02:07:12;8.98;;;6.18;;
29662;SDS011;16578;53.266;7.920;2024-03-02T02:09:39;8.27;;;6.28;;
29662;SDS011;16578;53.266;7.920;2024-03-02T02:12:11;6.80;;;5.40;;
29662;SDS011;16578;53.266;7.920;2024-03-02T02:14:37;8.05;;;6.20;;
29662;SDS011;16578;53.266;7.920;2024-03-02T02:17:04;8.68;;;5.68;;
29662;SDS011;16578;53.266;7.920;2024-03-02T02:19:30;7.57;;;5.32;;
29662;SDS011;16578;53.266;7.920;2024-03-02T02:21:56;7.85;;;5.22;;
29662;SDS011;16578;53.266;7.920;2024-03-02T02:24:21;8.00;;;5.15;;
29662;SDS011;16578;53.266;7.920;2024-03-02T02:26:47;7.40;;;5.38;;
29662;SDS011;16578;53.266;7.920;2024-03-02T02:29:12;7.93;;;5.78;;
29662;SDS011;16578;53.266;7.920;2024-03-02T02:31:41;8.45;;;5.80;;
29662;SDS011;16578;53.266;7.920;2024-03-02T02:34:07;9.00;;;6.68;;
29662;SDS011;16578;53.266;7.920;2024-03-02T02:36:34;7.53;;;5.43;;
29662;SDS011;16578;53.266;7.920;2024-03-02T02:39:03;9.45;;;6.10;;
29662;SDS011;16578;53.266;7.920;2024-03-02T02:41:30;9.23;;;5.72;;
29662;SDS011;16578;53.266;7.920;2024-03-02T02:43:56;8.90;;;6.05;;
29662;SDS011;16578;53.266;7.920;2024-03-02T02:46:21;8.48;;;5.88;;
29662;SDS011;16578;53.266;7.920;2024-03-02T02:48:47;9.73;;;6.38;;
29662;SDS011;16578;53.266;7.920;2024-03-02T02:51:13;9.18;;;6.07;;
29662;SDS011;16578;53.266;7.920;2024-03-02T02:53:38;8.63;;;6.45;;
29662;SDS011;16578;53.266;7.920;2024-03-02T02:56:07;10.32;;;6.50;;
29662;SDS011;16578;53.266;7.920;2024-03-02T02:58:32;8.43;;;6.05;;
29662;SDS011;16578;53.266;7.920;2024-03-02T03:00:58;11.73;;;6.05;;
29662;SDS011;16578;53.266;7.920;2024-03-02T03:03:24;8.35;;;5.93;;
29662;SDS011;16578;53.266;7.920;2024-03-02T03:05:49;8.18;;;5.85;;
29662;SDS011;16578;53.266;7.920;2024-03-02T03:08:15;10.05;;;6.95;;
29662;SDS011;16578;53.266;7.920;2024-03-02T03:10:41;9.10;;;6.78;;
29662;SDS011;16578;53.266;7.920;2024-03-02T03:13:07;9.40;;;6.82;;
29662;SDS011;16578;53.266;7.920;2024-03-02T03:15:36;9.43;;;6.72;;
29662;SDS011;16578;53.266;7.920;2024-03-02T03:18:03;9.15;;;7.32;;
29662;SDS011;16578;53.266;7.920;2024-03-02T03:20:29;9.15;;;6.65;;
29662;SDS011;16578;53.266;7.920;2024-03-02T03:22:56;11.10;;;7.13;;
29662;SDS011;16578;53.266;7.920;2024-03-02T03:25:22;8.68;;;6.72;;
29662;SDS011;16578;53.266;7.920;2024-03-02T03:27:47;9.32;;;6.82;;
29662;SDS011;16578;53.266;7.920;2024-03-02T03:30:13;10.95;;;7.22;;
29662;SDS011;16578;53.266;7.920;2024-03-02T03:32:39;9.02;;;6.43;;
29662;SDS011;16578;53.266;7.920;2024-03-02T03:35:05;10.75;;;7.13;;
29662;SDS011;16578;53.266;7.920;2024-03-02T03:37:31;9.40;;;6.90;;
29662;SDS011;16578;53.266;7.920;2024-03-02T03:42:26;10.65;;;7.20;;
29662;SDS011;16578;53.266;7.920;2024-03-02T03:44:52;12.55;;;7.50;;
29662;SDS011;16578;53.266;7.920;2024-03-02T03:47:17;8.77;;;6.22;;
29662;SDS011;16578;53.266;7.920;2024-03-02T03:49:43;9.85;;;6.88;;
29662;SDS011;16578;53.266;7.920;2024-03-02T03:52:09;11.75;;;7.10;;
29662;SDS011;16578;53.266;7.920;2024-03-02T03:54:34;11.43;;;8.00;;
29662;SDS011;16578;53.266;7.920;2024-03-02T03:57:02;10.40;;;7.03;;
29662;SDS011;16578;53.266;7.920;2024-03-02T03:59:27;9.95;;;7.70;;
29662;SDS011;16578;53.266;7.920;2024-03-02T04:01:53;8.68;;;6.63;;
29662;SDS011;16578;53.266;7.920;2024-03-02T04:04:19;12.18;;;7.78;;
29662;SDS011;16578;53.266;7.920;2024-03-02T04:06:44;9.93;;;6.97;;
29662;SDS011;16578;53.266;7.920;2024-03-02T04:09:10;10.10;;;7.15;;
29662;SDS011;16578;53.266;7.920;2024-03-02T04:11:35;9.45;;;6.80;;
29662;SDS011;16578;53.266;7.920;2024-03-02T04:14:01;11.13;;;6.82;;
29662;SDS011;16578;53.266;7.920;2024-03-02T04:16:27;9.98;;;7.30;;
29662;SDS011;16578;53.266;7.920;2024-03-02T04:18:53;9.13;;;6.82;;
29662;SDS011;16578;53.266;7.920;2024-03-02T04:21:19;13.02;;;8.18;;
29662;SDS011;16578;53.266;7.920;2024-03-02T04:23:45;10.18;;;6.97;;
29662;SDS011;16578;53.266;7.920;2024-03-02T04:26:10;10.93;;;7.80;;
29662;SDS011;16578;53.266;7.920;2024-03-02T04:28:36;9.20;;;7.18;;
29662;SDS011;16578;53.266;7.920;2024-03-02T04:31:02;9.60;;;6.53;;
29662;SDS011;16578;53.266;7.920;2024-03-02T04:33:27;11.07;;;7.13;;
29662;SDS011;16578;53.266;7.920;2024-03-02T04:35:53;9.77;;;7.05;;
29662;SDS011;16578;53.266;7.920;2024-03-02T04:38:18;10.15;;;7.53;;
29662;SDS011;16578;53.266;7.920;2024-03-02T04:40:44;11.07;;;7.45;;
29662;SDS011;16578;53.266;7.920;2024-03-02T04:43:09;13.98;;;7.88;;
29662;SDS011;16578;53.266;7.920;2024-03-02T04:45:37;9.55;;;7.22;;
29662;SDS011;16578;53.266;7.920;2024-03-02T04:48:03;10.25;;;7.25;;
29662;SDS011;16578;53.266;7.920;2024-03-02T04:50:29;10.98;;;7.90;;
29662;SDS011;16578;53.266;7.920;2024-03-02T04:52:55;11.02;;;7.85;;
29662;SDS011;16578;53.266;7.920;2024-03-02T04:55:20;10.15;;;6.97;;
29662;SDS011;16578;53.266;7.920;2024-03-02T04:58:04;10.55;;;7.78;;
29662;SDS011;16578;53.266;7.920;2024-03-02T05:00:30;12.57;;;8.15;;
29662;SDS011;16578;53.266;7.920;2024-03-02T05:02:56;11.20;;;7.35;;
29662;SDS011;16578;53.266;7.920;2024-03-02T05:05:21;10.98;;;7.70;;
29662;SDS011;16578;53.266;7.920;2024-03-02T05:07:47;11.27;;;8.00;;
29662;SDS011;16578;53.266;7.920;2024-03-02T05:10:12;9.93;;;6.95;;
29662;SDS011;16578;53.266;7.920;2024-03-02T05:12:39;9.88;;;6.90;;
29662;SDS011;16578;53.266;7.920;2024-03-02T05:15:07;10.52;;;7.03;;
29662;SDS011;16578;53.266;7.920;2024-03-02T05:17:35;11.67;;;7.77;;
29662;SDS011;16578;53.266;7.920;2024-03-02T05:20:01;11.30;;;7.50;;
29662;SDS011;16578;53.266;7.920;2024-03-02T05:22:27;12.02;;;7.70;;
29662;SDS011;16578;53.266;7.920;2024-03-02T05:24:52;11.27;;;7.68;;
29662;SDS011;16578;53.266;7.920;2024-03-02T05:27:18;10.15;;;7.50;;
29662;SDS011;16578;53.266;7.920;2024-03-02T05:29:43;13.27;;;8.35;;
29662;SDS011;16578;53.266;7.920;2024-03-02T05:32:09;9.75;;;7.47;;
29662;SDS011;16578;53.266;7.920;2024-03-02T05:34:35;11.43;;;7.97;;
29662;SDS011;16578;53.266;7.920;2024-03-02T05:37:01;11.60;;;7.93;;
29662;SDS011;16578;53.266;7.920;2024-03-02T05:39:26;11.52;;;7.93;;
29662;SDS011;16578;53.266;7.920;2024-03-02T05:41:52;11.55;;;7.78;;
29662;SDS011;16578;53.266;7.920;2024-03-02T05:44:18;11.68;;;8.02;;
29662;SDS011;16578;53.266;7.920;2024-03-02T05:46:44;11.75;;;8.07;;
29662;SDS011;16578;53.266;7.920;2024-03-02T05:49:10;11.63;;;7.90;;
29662;SDS011;16578;53.266;7.920;2024-03-02T05:51:36;12.45;;;8.40;;
29662;SDS011;16578;53.266;7.920;2024-03-02T05:54:01;11.52;;;8.40;;
29662;SDS011;16578;53.266;7.920;2024-03-02T05:56:27;12.55;;;8.18;;
29662;SDS011;16578;53.266;7.920;2024-03-02T05:58:53;13.05;;;8.95;;
29662;SDS011;16578;53.266;7.920;2024-03-02T06:01:19;11.95;;;9.00;;
29662;SDS011;16578;53.266;7.920;2024-03-02T06:03:44;10.65;;;8.02;;
29662;SDS011;16578;53.266;7.920;2024-03-02T06:06:10;13.05;;;8.05;;
29662;SDS011;16578;53.266;7.920;2024-03-02T06:08:36;11.60;;;8.13;;
29662;SDS011;16578;53.266;7.920;2024-03-02T06:11:01;13.15;;;8.57;;
29662;SDS011;16578;53.266;7.920;2024-03-02T06:13:27;12.00;;;8.50;;
29662;SDS011;16578;53.266;7.920;2024-03-02T06:15:53;12.25;;;8.25;;
29662;SDS011;16578;53.266;7.920;2024-03-02T06:18:18;11.30;;;8.15;;
29662;SDS011;16578;53.266;7.920;2024-03-02T06:20:44;12.68;;;8.27;;
29662;SDS011;16578;53.266;7.920;2024-03-02T06:23:09;11.60;;;7.88;;
29662;SDS011;16578;53.266;7.920;2024-03-02T06:25:35;13.10;;;8.75;;
29662;SDS011;16578;53.266;7.920;2024-03-02T06:28:01;16.45;;;9.43;;
29662;SDS011;16578;53.266;7.920;2024-03-02T06:30:26;14.50;;;9.27;;
29662;SDS011;16578;53.266;7.920;2024-03-02T06:32:52;11.07;;;8.02;;
29662;SDS011;16578;53.266;7.920;2024-03-02T06:35:17;12.55;;;7.90;;
29662;SDS011;16578;53.266;7.920;2024-03-02T06:37:43;12.93;;;8.55;;
29662;SDS011;16578;53.266;7.920;2024-03-02T06:40:08;13.32;;;8.88;;
29662;SDS011;16578;53.266;7.920;2024-03-02T06:42:34;11.18;;;7.70;;
29662;SDS011;16578;53.266;7.920;2024-03-02T06:45:00;14.88;;;9.10;;
29662;SDS011;16578;53.266;7.920;2024-03-02T06:47:27;11.93;;;8.32;;
29662;SDS011;16578;53.266;7.920;2024-03-02T06:49:52;12.15;;;8.70;;
29662;SDS011;16578;53.266;7.920;2024-03-02T06:52:18;11.88;;;8.65;;
29662;SDS011;16578;53.266;7.920;2024-03-02T06:54:45;12.20;;;8.52;;
29662;SDS011;16578;53.266;7.920;2024-03-02T06:57:11;11.95;;;8.30;;
29662;SDS011;16578;53.266;7.920;2024-03-02T06:59:37;11.05;;;7.80;;
29662;SDS011;16578;53.266;7.920;2024-03-02T07:02:02;13.57;;;8.73;;
29662;SDS011;16578;53.266;7.920;2024-03-02T07:04:28;15.98;;;9.07;;
29662;SDS011;16578;53.266;7.920;2024-03-02T07:06:53;13.90;;;8.80;;
29662;SDS011;16578;53.266;7.920;2024-03-02T07:09:20;14.18;;;9.57;;
29662;SDS011;16578;53.266;7.920;2024-03-02T07:11:47;10.73;;;8.13;;
29662;SDS011;16578;53.266;7.920;2024-03-02T07:14:13;12.77;;;9.02;;
29662;SDS011;16578;53.266;7.920;2024-03-02T07:16:39;15.05;;;8.43;;
29662;SDS011;16578;53.266;7.920;2024-03-02T07:19:05;14.30;;;8.52;;
29662;SDS011;16578;53.266;7.920;2024-03-02T07:21:31;11.88;;;8.65;;
29662;SDS011;16578;53.266;7.920;2024-03-02T07:23:58;12.55;;;8.15;;
29662;SDS011;16578;53.266;7.920;2024-03-02T07:26:24;11.00;;;7.65;;
29662;SDS011;16578;53.266;7.920;2024-03-02T07:28:50;11.75;;;8.45;;
29662;SDS011;16578;53.266;7.920;2024-03-02T07:31:16;13.68;;;8.57;;
29662;SDS011;16578;53.266;7.920;2024-03-02T07:33:43;11.85;;;8.55;;
29662;SDS011;16578;53.266;7.920;2024-03-02T07:36:10;12.05;;;8.48;;
29662;SDS011;16578;53.266;7.920;2024-03-02T07:38:35;14.18;;;8.90;;
29662;SDS011;16578;53.266;7.920;2024-03-02T07:41:01;11.35;;;7.90;;
29662;SDS011;16578;53.266;7.920;2024-03-02T07:43:27;12.65;;;7.97;;
29662;SDS011;16578;53.266;7.920;2024-03-02T07:45:53;12.10;;;8.38;;
29662;SDS011;16578;53.266;7.920;2024-03-02T07:48:19;13.77;;;9.20;;
29662;SDS011;16578;53.266;7.920;2024-03-02T07:50:44;13.27;;;7.95;;
29662;SDS011;16578;53.266;7.920;2024-03-02T07:53:10;14.20;;;10.05;;
29662;SDS011;16578;53.266;7.920;2024-03-02T07:55:36;13.20;;;9.18;;
29662;SDS011;16578;53.266;7.920;2024-03-02T07:58:02;11.98;;;8.48;;
29662;SDS011;16578;53.266;7.920;2024-03-02T08:00:28;12.60;;;8.40;;
29662;SDS011;16578;53.266;7.920;2024-03-02T08:02:53;12.13;;;8.15;;
29662;SDS011;16578;53.266;7.920;2024-03-02T08:05:19;11.07;;;7.97;;
29662;SDS011;16578;53.266;7.920;2024-03-02T08:07:45;12.15;;;8.00;;
29662;SDS011;16578;53.266;7.920;2024-03-02T08:10:11;12.38;;;8.73;;
29662;SDS011;16578;53.266;7.920;2024-03-02T08:12:37;12.93;;;8.57;;
29662;SDS011;16578;53.266;7.920;2024-03-02T08:15:03;13.77;;;9.15;;
29662;SDS011;16578;53.266;7.920;2024-03-02T08:17:29;13.30;;;9.13;;
29662;SDS011;16578;53.266;7.920;2024-03-02T08:19:55;14.23;;;9.20;;
29662;SDS011;16578;53.266;7.920;2024-03-02T08:22:21;11.75;;;8.45;;
29662;SDS011;16578;53.266;7.920;2024-03-02T08:24:47;12.57;;;9.30;;
29662;SDS011;16578;53.266;7.920;2024-03-02T08:27:13;11.85;;;8.95;;
29662;SDS011;16578;53.266;7.920;2024-03-02T08:29:39;11.50;;;8.25;;
29662;SDS011;16578;53.266;7.920;2024-03-02T08:32:06;11.40;;;8.13;;
29662;SDS011;16578;53.266;7.920;2024-03-02T08:34:32;10.07;;;8.25;;
29662;SDS011;16578;53.266;7.920;2024-03-02T08:37:00;11.80;;;8.13;;
29662;SDS011;16578;53.266;7.920;2024-03-02T08:39:26;13.02;;;9.10;;
29662;SDS011;16578;53.266;7.920;2024-03-02T08:41:52;10.02;;;8.07;;
29662;SDS011;16578;53.266;7.920;2024-03-02T08:44:18;11.55;;;8.27;;
29662;SDS011;16578;53.266;7.920;2024-03-02T08:46:44;10.80;;;8.18;;
29662;SDS011;16578;53.266;7.920;2024-03-02T08:49:09;9.95;;;7.50;;
29662;SDS011;16578;53.266;7.920;2024-03-02T08:51:35;10.38;;;7.88;;
29662;SDS011;16578;53.266;7.920;2024-03-02T08:54:01;10.73;;;8.15;;
29662;SDS011;16578;53.266;7.920;2024-03-02T08:56:27;13.60;;;8.05;;
29662;SDS011;16578;53.266;7.920;2024-03-02T08:58:52;10.23;;;7.85;;
29662;SDS011;16578;53.266;7.920;2024-03-02T09:01:18;8.90;;;7.45;;
29662;SDS011;16578;53.266;7.920;2024-03-02T09:03:46;9.43;;;7.18;;
29662;SDS011;16578;53.266;7.920;2024-03-02T09:06:14;10.85;;;8.27;;
29662;SDS011;16578;53.266;7.920;2024-03-02T09:08:41;12.40;;;8.23;;
29662;SDS011;16578;53.266;7.920;2024-03-02T09:11:08;10.88;;;7.47;;
29662;SDS011;16578;53.266;7.920;2024-03-02T09:13:35;10.05;;;8.15;;
29662;SDS011;16578;53.266;7.920;2024-03-02T09:16:01;13.05;;;8.43;;
29662;SDS011;16578;53.266;7.920;2024-03-02T09:18:27;12.80;;;9.02;;
29662;SDS011;16578;53.266;7.920;2024-03-02T09:20:53;10.40;;;7.47;;
29662;SDS011;16578;53.266;7.920;2024-03-02T09:23:18;11.50;;;8.13;;
29662;SDS011;16578;53.266;7.920;2024-03-02T09:25:44;11.13;;;7.93;;
29662;SDS011;16578;53.266;7.920;2024-03-02T09:28:10;11.00;;;7.72;;
29662;SDS011;16578;53.266;7.920;2024-03-02T09:30:35;10.98;;;7.45;;
29662;SDS011;16578;53.266;7.920;2024-03-02T09:33:01;10.13;;;7.72;;
29662;SDS011;16578;53.266;7.920;2024-03-02T09:35:27;9.68;;;7.25;;
29662;SDS011;16578;53.266;7.920;2024-03-02T09:37:52;11.50;;;7.82;;
29662;SDS011;16578;53.266;7.920;2024-03-02T09:40:20;9.75;;;7.35;;
29662;SDS011;16578;53.266;7.920;2024-03-02T09:42:47;9.70;;;7.63;;
29662;SDS011;16578;53.266;7.920;2024-03-02T09:45:18;10.90;;;7.40;;
29662;SDS011;16578;53.266;7.920;2024-03-02T09:47:48;8.25;;;7.32;;
29662;SDS011;16578;53.266;7.920;2024-03-02T09:50:14;9.50;;;7.85;;
29662;SDS011;16578;53.266;7.920;2024-03-02T09:52:40;9.73;;;7.65;;
29662;SDS011;16578;53.266;7.920;2024-03-02T09:55:13;10.63;;;8.00;;
29662;SDS011;16578;53.266;7.920;2024-03-02T09:57:40;9.48;;;7.38;;
29662;SDS011;16578;53.266;7.920;2024-03-02T10:00:07;11.65;;;7.28;;
29662;SDS011;16578;53.266;7.920;2024-03-02T10:02:33;9.18;;;7.40;;
29662;SDS011;16578;53.266;7.920;2024-03-02T10:04:59;9.63;;;7.32;;
29662;SDS011;16578;53.266;7.920;2024-03-02T10:07:25;9.40;;;7.15;;
29662;SDS011;16578;53.266;7.920;2024-03-02T10:09:54;7.00;;;5.93;;
29662;SDS011;16578;53.266;7.920;2024-03-02T10:12:19;9.57;;;5.95;;
29662;SDS011;16578;53.266;7.920;2024-03-02T10:14:45;7.63;;;5.97;;
29662;SDS011;16578;53.266;7.920;2024-03-02T10:17:13;7.20;;;5.17;;
29662;SDS011;16578;53.266;7.920;2024-03-02T10:19:40;8.23;;;6.60;;
29662;SDS011;16578;53.266;7.920;2024-03-02T10:22:07;6.30;;;5.07;;
29662;SDS011;16578;53.266;7.920;2024-03-02T10:24:40;7.45;;;5.30;;
29662;SDS011;16578;53.266;7.920;2024-03-02T10:27:16;6.65;;;5.53;;
29662;SDS011;16578;53.266;7.920;2024-03-02T10:29:46;6.50;;;4.85;;
29662;SDS011;16578;53.266;7.920;2024-03-02T10:32:12;5.13;;;4.45;;
29662;SDS011;16578;53.266;7.920;2024-03-02T10:34:41;5.88;;;4.35;;
29662;SDS011;16578;53.266;7.920;2024-03-02T10:37:11;4.90;;;3.75;;
29662;SDS011;16578;53.266;7.920;2024-03-02T10:39:37;5.35;;;4.45;;
29662;SDS011;16578;53.266;7.920;2024-03-02T10:42:06;6.20;;;4.97;;
29662;SDS011;16578;53.266;7.920;2024-03-02T10:44:32;6.40;;;4.38;;
29662;SDS011;16578;53.266;7.920;2024-03-02T10:47:02;6.57;;;4.50;;
29662;SDS011;16578;53.266;7.920;2024-03-02T10:49:30;6.63;;;4.43;;
29662;SDS011;16578;53.266;7.920;2024-03-02T10:51:57;4.40;;;3.83;;
29662;SDS011;16578;53.266;7.920;2024-03-02T10:54:26;5.25;;;3.85;;
29662;SDS011;16578;53.266;7.920;2024-03-02T10:56:54;5.78;;;4.07;;
29662;SDS011;16578;53.266;7.920;2024-03-02T10:59:26;6.13;;;4.28;;
29662;SDS011;16578;53.266;7.920;2024-03-02T11:02:00;4.78;;;3.85;;
29662;SDS011;16578;53.266;7.920;2024-03-02T11:04:27;4.75;;;3.80;;
29662;SDS011;16578;53.266;7.920;2024-03-02T11:07:04;5.03;;;3.85;;
29662;SDS011;16578;53.266;7.920;2024-03-02T11:09:33;5.50;;;4.30;;
29662;SDS011;16578;53.266;7.920;2024-03-02T11:12:02;4.40;;;3.58;;
29662;SDS011;16578;53.266;7.920;2024-03-02T11:14:31;5.18;;;4.07;;
29662;SDS011;16578;53.266;7.920;2024-03-02T11:17:01;6.45;;;4.80;;
29662;SDS011;16578;53.266;7.920;2024-03-02T11:19:28;9.32;;;5.10;;
29662;SDS011;16578;53.266;7.920;2024-03-02T11:21:55;6.07;;;4.30;;
29662;SDS011;16578;53.266;7.920;2024-03-02T11:26:50;4.88;;;4.38;;
29662;SDS011;16578;53.266;7.920;2024-03-02T11:32:01;7.15;;;3.95;;
29662;SDS011;16578;53.266;7.920;2024-03-02T11:34:31;5.50;;;4.35;;
29662;SDS011;16578;53.266;7.920;2024-03-02T11:36:58;4.47;;;4.03;;
29662;SDS011;16578;53.266;7.920;2024-03-02T11:39:24;5.80;;;4.40;;
29662;SDS011;16578;53.266;7.920;2024-03-02T11:41:51;6.25;;;4.00;;
29662;SDS011;16578;53.266;7.920;2024-03-02T11:44:16;6.97;;;4.15;;
29662;SDS011;16578;53.266;7.920;2024-03-02T11:46:44;5.97;;;4.95;;
29662;SDS011;16578;53.266;7.920;2024-03-02T11:49:14;5.18;;;3.90;;
29662;SDS011;16578;53.266;7.920;2024-03-02T11:51:40;7.75;;;5.25;;
29662;SDS011;16578;53.266;7.920;2024-03-02T11:54:25;7.25;;;4.80;;
29662;SDS011;16578;53.266;7.920;2024-03-02T11:56:52;6.47;;;5.00;;
29662;SDS011;16578;53.266;7.920;2024-03-02T11:59:19;6.20;;;5.53;;
29662;SDS011;16578;53.266;7.920;2024-03-02T12:01:45;5.72;;;4.97;;
29662;SDS011;16578;53.266;7.920;2024-03-02T12:04:12;6.07;;;4.78;;
29662;SDS011;16578;53.266;7.920;2024-03-02T12:06:38;5.13;;;4.50;;
29662;SDS011;16578;53.266;7.920;2024-03-02T12:09:04;5.85;;;4.70;;
29662;SDS011;16578;53.266;7.920;2024-03-02T12:11:30;5.70;;;4.55;;
29662;SDS011;16578;53.266;7.920;2024-03-02T12:13:56;5.00;;;4.38;;
29662;SDS011;16578;53.266;7.920;2024-03-02T12:16:26;5.15;;;4.40;;
29662;SDS011;16578;53.266;7.920;2024-03-02T12:18:51;4.93;;;4.38;;
29662;SDS011;16578;53.266;7.920;2024-03-02T12:21:17;5.70;;;4.18;;
29662;SDS011;16578;53.266;7.920;2024-03-02T12:23:43;4.93;;;4.40;;
29662;SDS011;16578;53.266;7.920;2024-03-02T12:26:09;5.75;;;4.60;;
29662;SDS011;16578;53.266;7.920;2024-03-02T12:28:34;5.57;;;4.60;;
29662;SDS011;16578;53.266;7.920;2024-03-02T12:31:00;7.90;;;5.30;;
29662;SDS011;16578;53.266;7.920;2024-03-02T12:33:26;5.85;;;4.90;;
29662;SDS011;16578;53.266;7.920;2024-03-02T12:35:52;5.00;;;4.50;;
29662;SDS011;16578;53.266;7.920;2024-03-02T12:38:18;6.25;;;3.97;;
29662;SDS011;16578;53.266;7.920;2024-03-02T12:40:44;4.70;;;3.47;;
29662;SDS011;16578;53.266;7.920;2024-03-02T12:43:12;6.53;;;4.95;;
29662;SDS011;16578;53.266;7.920;2024-03-02T12:45:38;4.90;;;4.15;;
29662;SDS011;16578;53.266;7.920;2024-03-02T12:48:04;8.52;;;5.10;;
29662;SDS011;16578;53.266;7.920;2024-03-02T12:50:30;5.68;;;4.75;;
29662;SDS011;16578;53.266;7.920;2024-03-02T12:52:56;5.65;;;4.75;;
29662;SDS011;16578;53.266;7.920;2024-03-02T12:55:21;5.25;;;4.55;;
29662;SDS011;16578;53.266;7.920;2024-03-02T12:57:49;7.68;;;5.10;;
29662;SDS011;16578;53.266;7.920;2024-03-02T13:00:17;7.13;;;5.22;;
29662;SDS011;16578;53.266;7.920;2024-03-02T13:05:10;7.43;;;5.47;;
29662;SDS011;16578;53.266;7.920;2024-03-02T13:07:36;6.80;;;5.60;;
29662;SDS011;16578;53.266;7.920;2024-03-02T13:10:03;8.05;;;6.18;;
29662;SDS011;16578;53.266;7.920;2024-03-02T13:12:29;6.80;;;5.03;;
29662;SDS011;16578;53.266;7.920;2024-03-02T13:14:57;7.30;;;5.60;;
29662;SDS011;16578;53.266;7.920;2024-03-02T13:17:23;4.95;;;4.15;;
29662;SDS011;16578;53.266;7.920;2024-03-02T13:19:53;6.93;;;5.90;;
29662;SDS011;16578;53.266;7.920;2024-03-02T13:22:19;7.70;;;5.53;;
29662;SDS011;16578;53.266;7.920;2024-03-02T13:24:45;8.90;;;5.50;;
29662;SDS011;16578;53.266;7.920;2024-03-02T13:27:10;8.65;;;5.70;;
29662;SDS011;16578;53.266;7.920;2024-03-02T13:29:36;6.95;;;5.43;;
29662;SDS011;16578;53.266;7.920;2024-03-02T13:32:02;8.55;;;6.53;;
29662;SDS011;16578;53.266;7.920;2024-03-02T13:34:28;6.55;;;5.65;;
29662;SDS011;16578;53.266;7.920;2024-03-02T13:36:53;7.10;;;5.57;;
29662;SDS011;16578;53.266;7.920;2024-03-02T13:39:19;8.30;;;4.93;;
29662;SDS011;16578;53.266;7.920;2024-03-02T13:41:44;8.05;;;6.10;;
29662;SDS011;16578;53.266;7.920;2024-03-02T13:44:17;6.55;;;4.53;;
29662;SDS011;16578;53.266;7.920;2024-03-02T13:46:44;5.75;;;4.93;;
29662;SDS011;16578;53.266;7.920;2024-03-02T13:49:10;8.15;;;5.63;;
29662;SDS011;16578;53.266;7.920;2024-03-02T13:51:37;9.60;;;5.72;;
29662;SDS011;16578;53.266;7.920;2024-03-02T13:54:02;8.30;;;5.88;;
29662;SDS011;16578;53.266;7.920;2024-03-02T13:56:28;6.22;;;5.45;;
29662;SDS011;16578;53.266;7.920;2024-03-02T13:58:54;7.18;;;5.50;;
29662;SDS011;16578;53.266;7.920;2024-03-02T14:01:20;6.00;;;4.88;;
29662;SDS011;16578;53.266;7.920;2024-03-02T14:03:46;5.60;;;4.75;;
29662;SDS011;16578;53.266;7.920;2024-03-02T14:06:12;5.68;;;5.00;;
29662;SDS011;16578;53.266;7.920;2024-03-02T14:08:37;6.80;;;5.25;;
29662;SDS011;16578;53.266;7.920;2024-03-02T14:11:03;4.78;;;4.22;;
29662;SDS011;16578;53.266;7.920;2024-03-02T14:13:29;5.07;;;4.20;;
29662;SDS011;16578;53.266;7.920;2024-03-02T14:15:54;5.20;;;4.70;;
29662;SDS011;16578;53.266;7.920;2024-03-02T14:18:20;5.70;;;4.70;;
29662;SDS011;16578;53.266;7.920;2024-03-02T14:20:46;5.32;;;4.30;;
29662;SDS011;16578;53.266;7.920;2024-03-02T14:23:17;4.68;;;4.15;;
29662;SDS011;16578;53.266;7.920;2024-03-02T14:25:44;7.93;;;3.95;;
29662;SDS011;16578;53.266;7.920;2024-03-02T14:28:10;5.28;;;4.03;;
29662;SDS011;16578;53.266;7.920;2024-03-02T14:30:37;5.57;;;4.03;;
29662;SDS011;16578;53.266;7.920;2024-03-02T14:33:03;4.55;;;3.63;;
29662;SDS011;16578;53.266;7.920;2024-03-02T14:35:28;7.07;;;4.07;;
29662;SDS011;16578;53.266;7.920;2024-03-02T14:37:54;5.03;;;4.22;;
29662;SDS011;16578;53.266;7.920;2024-03-02T14:40:22;5.00;;;4.13;;
29662;SDS011;16578;53.266;7.920;2024-03-02T14:42:50;4.90;;;3.78;;
29662;SDS011;16578;53.266;7.920;2024-03-02T14:45:16;5.35;;;4.28;;
29662;SDS011;16578;53.266;7.920;2024-03-02T14:47:41;5.70;;;4.30;;